Time;durP1;ratioP1;P1;durP2;ratioP2;P2;SDS_P1;SDS_P2;PMS_P1;PMS_P2;Temp;Humidity;BMP_temperature;BMP_pressure;BME280_temperature;BME280_humidity;BME280_pressure;Samples;Min_cycle;Max_cycle;Signal;HPM_P1;HPM_P2
2021/12/22 00:00:42;;;;;;;7.30;4.50;;;2.20;99.90;;;;;;5036881;28;20473;-48
2021/12/22 00:03:10;;;;;;;5.17;3.63;;;2.20;99.90;;;;;;5037475;28;20498;-56
2021/12/22 00:05:44;;;;;;;15.77;5.10;;;2.30;99.90;;;;;;5037024;28;20468;-49
2021/12/22 00:08:12;;;;;;;6.47;3.43;;;2.30;99.90;;;;;;5036348;28;20463;-46
2021/12/22 00:10:40;;;;;;;5.90;3.63;;;2.20;99.90;;;;;;5036135;28;20918;-48
2021/12/22 00:13:07;;;;;;;6.13;3.37;;;2.20;99.90;;;;;;5036677;28;20487;-49
2021/12/22 00:15:34;;;;;;;9.23;3.63;;;2.20;99.90;;;;;;5036755;28;20466;-49
2021/12/22 00:18:01;;;;;;;11.97;4.70;;;2.10;99.90;;;;;;5036424;28;20520;-52
2021/12/22 00:20:30;;;;;;;5.17;3.90;;;2.10;99.90;;;;;;5036409;28;20955;-53
2021/12/22 00:22:57;;;;;;;8.10;3.67;;;2.10;99.90;;;;;;5036560;28;20504;-53
2021/12/22 00:25:25;;;;;;;3.60;2.23;;;2.10;99.90;;;;;;5036468;28;20551;-55
2021/12/22 00:27:53;;;;;;;3.47;2.10;;;2.00;99.90;;;;;;5036882;28;20533;-48
2021/12/22 00:30:20;;;;;;;3.40;2.07;;;1.90;99.90;;;;;;5035869;28;20504;-48
2021/12/22 00:32:51;;;;;;;4.60;3.00;;;1.80;99.90;;;;;;5035985;28;20486;-50
2021/12/22 00:35:19;;;;;;;8.30;3.03;;;1.80;99.90;;;;;;5036263;28;20442;-49
2021/12/22 00:37:48;;;;;;;9.87;4.30;;;1.80;99.90;;;;;;5035870;28;20484;-52
2021/12/22 00:40:15;;;;;;;5.03;3.60;;;1.80;99.90;;;;;;5035528;28;20920;-50
2021/12/22 00:42:42;;;;;;;4.50;3.30;;;1.80;99.90;;;;;;5036620;28;20440;-48
2021/12/22 00:45:10;;;;;;;9.03;3.90;;;1.90;99.90;;;;;;5038912;28;20479;-51
2021/12/22 00:47:37;;;;;;;6.60;4.03;;;1.90;99.90;;;;;;5042915;28;20457;-51
2021/12/22 00:50:06;;;;;;;6.90;2.83;;;1.90;99.90;;;;;;5042685;28;20475;-49
2021/12/22 00:52:33;;;;;;;5.37;2.90;;;1.90;99.90;;;;;;5044683;28;20544;-48
2021/12/22 00:55:01;;;;;;;11.53;4.43;;;2.00;99.90;;;;;;5046278;28;20435;-48
2021/12/22 00:57:31;;;;;;;6.10;3.63;;;1.90;99.90;;;;;;5053766;28;20491;-50
2021/12/22 00:59:58;;;;;;;4.87;3.53;;;1.80;99.90;;;;;;5056870;28;20483;-62
2021/12/22 01:02:25;;;;;;;7.73;3.60;;;1.80;99.90;;;;;;5057480;28;20455;-52
2021/12/22 01:04:52;;;;;;;4.93;3.30;;;1.80;99.90;;;;;;5055656;28;20432;-49
2021/12/22 01:07:19;;;;;;;5.70;3.53;;;1.80;99.90;;;;;;5054931;28;20455;-51
2021/12/22 01:09:49;;;;;;;6.30;3.53;;;1.70;99.90;;;;;;5055046;28;20424;-51
2021/12/22 01:12:20;;;;;;;6.60;3.43;;;1.70;99.90;;;;;;5053417;28;20453;-49
2021/12/22 01:14:46;;;;;;;10.07;3.60;;;1.80;99.90;;;;;;5053965;28;20429;-48
2021/12/22 01:17:15;;;;;;;5.03;2.80;;;1.80;99.90;;;;;;5038030;28;20492;-46
2021/12/22 01:19:47;;;;;;;4.10;2.50;;;1.80;99.90;;;;;;5052165;28;20446;-45
2021/12/22 01:22:28;;;;;;;3.90;2.87;;;1.80;99.90;;;;;;5053217;28;20460;-47
2021/12/22 01:25:01;;;;;;;4.90;3.00;;;1.80;99.90;;;;;;5052960;28;20463;-46
2021/12/22 01:27:34;;;;;;;6.57;3.57;;;1.80;99.90;;;;;;5053741;28;20440;-46
2021/12/22 01:30:03;;;;;;;8.30;3.00;;;1.80;99.90;;;;;;5055164;28;20496;-46
2021/12/22 01:32:32;;;;;;;9.33;3.67;;;1.80;99.90;;;;;;5056604;28;20444;-47
2021/12/22 01:34:59;;;;;;;6.90;3.53;;;1.80;99.90;;;;;;5056269;28;20467;-55
2021/12/22 01:37:26;;;;;;;8.53;3.40;;;1.80;99.90;;;;;;5055778;28;20476;-49
2021/12/22 01:39:56;;;;;;;7.47;5.83;;;1.80;99.90;;;;;;5056193;28;20478;-52
2021/12/22 01:42:25;;;;;;;11.30;3.80;;;1.80;99.90;;;;;;5055886;28;20398;-49
2021/12/22 01:45:13;;;;;;;10.03;3.23;;;1.90;99.90;;;;;;5056093;28;20447;-48
2021/12/22 01:50:36;;;;;;;14.80;4.10;;;1.90;99.90;;;;;;5055955;28;20472;-51
2021/12/22 01:53:10;;;;;;;9.43;4.53;;;2.00;99.90;;;;;;5055897;28;20460;-51
2021/12/22 01:55:39;;;;;;;10.93;5.47;;;2.00;99.90;;;;;;5055859;28;20433;-50
2021/12/22 01:58:11;;;;;;;9.70;4.27;;;2.10;99.90;;;;;;5055450;28;20476;-50
2021/12/22 02:00:40;;;;;;;3.93;3.10;;;2.10;99.90;;;;;;5055704;28;20440;-50
2021/12/22 02:03:06;;;;;;;10.90;5.13;;;2.10;99.90;;;;;;5055863;28;20492;-47
2021/12/22 02:05:33;;;;;;;10.43;4.03;;;2.20;99.90;;;;;;5055832;28;20444;-45
2021/12/22 02:08:01;;;;;;;8.10;2.83;;;2.20;99.90;;;;;;5055491;28;20480;-49
2021/12/22 02:10:36;;;;;;;6.47;3.27;;;2.20;99.90;;;;;;5056129;28;20465;-52
2021/12/22 02:13:05;;;;;;;5.20;2.83;;;2.20;99.90;;;;;;5056038;28;20504;-48
2021/12/22 02:15:34;;;;;;;5.07;2.67;;;2.20;99.90;;;;;;5056636;28;20428;-47
2021/12/22 02:18:04;;;;;;;9.47;3.43;;;2.20;99.90;;;;;;5056207;28;20483;-46
2021/12/22 02:20:32;;;;;;;5.33;3.00;;;2.20;99.90;;;;;;5056330;28;20447;-44
2021/12/22 02:23:00;;;;;;;5.70;3.80;;;2.20;99.90;;;;;;5056150;28;20454;-50
2021/12/22 02:25:34;;;;;;;4.40;2.80;;;2.30;99.90;;;;;;5056054;28;20460;-49
2021/12/22 02:28:04;;;;;;;5.40;2.30;;;2.30;99.90;;;;;;5055710;28;20480;-50
2021/12/22 02:30:32;;;;;;;7.40;3.10;;;2.20;99.90;;;;;;5055681;28;20483;-51
2021/12/22 02:33:19;;;;;;;3.40;3.10;;;2.30;99.90;;;;;;5055492;28;20452;-56
2021/12/22 02:35:56;;;;;;;6.07;4.13;;;2.20;99.90;;;;;;5055505;28;20473;-50
2021/12/22 02:38:23;;;;;;;8.23;4.10;;;2.20;99.90;;;;;;5055211;28;20526;-51
2021/12/22 02:40:51;;;;;;;6.23;4.70;;;2.30;99.90;;;;;;5055549;28;20472;-50
2021/12/22 02:43:22;;;;;;;8.10;3.70;;;2.20;99.90;;;;;;5055773;28;20452;-51
2021/12/22 02:45:50;;;;;;;5.00;2.30;;;2.30;99.90;;;;;;5055661;28;20432;-52
2021/12/22 02:48:17;;;;;;;6.13;3.90;;;2.30;99.90;;;;;;5055384;28;20448;-52
2021/12/22 02:50:44;;;;;;;6.03;3.50;;;2.30;99.90;;;;;;5055524;28;20471;-52
2021/12/22 02:53:15;;;;;;;11.17;4.50;;;2.30;99.90;;;;;;5055368;28;20493;-52
2021/12/22 02:55:46;;;;;;;5.37;4.23;;;2.30;99.90;;;;;;5054920;28;20447;-51
2021/12/22 02:58:22;;;;;;;5.17;3.67;;;2.40;99.90;;;;;;5055384;28;20494;-51
2021/12/22 03:01:07;;;;;;;4.83;3.77;;;2.40;99.90;;;;;;5055545;28;20447;-43
2021/12/22 03:03:50;;;;;;;5.13;2.90;;;2.30;99.90;;;;;;5057033;28;20486;-47
2021/12/22 03:06:25;;;;;;;6.77;4.33;;;2.30;99.90;;;;;;5059165;28;20527;-45
2021/12/22 03:08:53;;;;;;;4.90;3.10;;;2.20;99.90;;;;;;5058899;28;20478;-50
2021/12/22 03:11:22;;;;;;;14.43;3.50;;;2.20;99.90;;;;;;5059211;28;20466;-53
2021/12/22 03:13:49;;;;;;;7.17;4.10;;;2.30;99.90;;;;;;5058708;28;20437;-45
2021/12/22 03:16:18;;;;;;;13.27;4.77;;;2.20;99.90;;;;;;5058956;28;20523;-51
2021/12/22 03:18:45;;;;;;;7.17;3.90;;;2.10;99.90;;;;;;5059293;28;20475;-51
2021/12/22 03:21:20;;;;;;;6.90;3.07;;;2.10;99.90;;;;;;5058698;28;20473;-45
2021/12/22 03:23:48;;;;;;;5.20;3.13;;;2.10;99.90;;;;;;5059028;28;20433;-53
2021/12/22 03:26:18;;;;;;;12.43;3.90;;;2.00;99.90;;;;;;5059000;28;20482;-50
2021/12/22 03:28:47;;;;;;;5.07;4.43;;;2.00;99.90;;;;;;5058963;28;20467;-46
2021/12/22 03:31:14;;;;;;;8.33;4.60;;;2.10;99.90;;;;;;5058459;28;20465;-52
2021/12/22 03:33:41;;;;;;;7.20;4.73;;;2.10;99.90;;;;;;5058546;28;20448;-52
2021/12/22 03:36:08;;;;;;;6.77;3.77;;;2.20;99.90;;;;;;5058354;28;20478;-56
2021/12/22 03:38:36;;;;;;;9.03;4.03;;;2.30;99.90;;;;;;5058669;28;20459;-49
2021/12/22 03:41:05;;;;;;;3.37;2.63;;;2.30;99.90;;;;;;5058428;28;20507;-49
2021/12/22 03:43:33;;;;;;;6.57;4.10;;;2.30;99.90;;;;;;5058699;28;20445;-50
2021/12/22 03:46:00;;;;;;;6.63;3.70;;;2.30;99.90;;;;;;5057778;28;20500;-48
2021/12/22 03:48:28;;;;;;;4.67;3.03;;;2.40;99.90;;;;;;5057726;28;20474;-51
2021/12/22 03:50:56;;;;;;;13.07;3.43;;;2.30;99.90;;;;;;5058494;28;20504;-53
2021/12/22 03:53:23;;;;;;;6.60;3.30;;;2.30;99.90;;;;;;5057670;28;20483;-54
2021/12/22 03:55:51;;;;;;;5.73;2.20;;;2.30;99.90;;;;;;5058264;28;20423;-48
2021/12/22 03:58:18;;;;;;;3.00;2.10;;;2.40;99.90;;;;;;5057726;28;20552;-47
2021/12/22 04:00:51;;;;;;;4.37;1.97;;;2.30;99.90;;;;;;5058229;28;20421;-48
2021/12/22 04:03:22;;;;;;;2.67;1.57;;;2.30;99.90;;;;;;5058127;28;20455;-53
2021/12/22 04:05:49;;;;;;;2.10;1.67;;;2.20;99.90;;;;;;5057957;28;20429;-51
2021/12/22 04:08:18;;;;;;;2.33;1.97;;;2.20;99.90;;;;;;5057666;28;20476;-48
2021/12/22 04:10:45;;;;;;;2.50;1.40;;;2.20;99.90;;;;;;5058228;28;20472;-45
2021/12/22 04:13:12;;;;;;;1.80;1.27;;;2.20;99.90;;;;;;5058048;28;20442;-49
2021/12/22 04:15:39;;;;;;;1.73;1.27;;;2.20;99.90;;;;;;5055868;28;20461;-52
2021/12/22 04:18:10;;;;;;;1.60;1.47;;;2.20;99.90;;;;;;5057763;28;20471;-46
2021/12/22 04:20:36;;;;;;;2.53;2.23;;;2.10;99.90;;;;;;5057656;28;20521;-52
2021/12/22 04:23:04;;;;;;;4.20;2.63;;;2.20;99.90;;;;;;5057402;28;20438;-51
2021/12/22 04:25:32;;;;;;;5.67;2.60;;;2.10;99.90;;;;;;5057589;28;20449;-47
2021/12/22 04:28:04;;;;;;;2.60;1.97;;;2.00;99.90;;;;;;5057407;28;20479;-48
2021/12/22 04:30:33;;;;;;;2.00;1.50;;;2.00;99.90;;;;;;5057065;28;20440;-50
2021/12/22 04:33:00;;;;;;;15.23;2.30;;;2.00;99.90;;;;;;5057650;28;20461;-50
2021/12/22 04:35:28;;;;;;;5.67;1.40;;;2.00;99.90;;;;;;5057354;28;20463;-53
2021/12/22 04:37:55;;;;;;;1.53;1.43;;;2.00;99.90;;;;;;5057620;28;20486;-48
2021/12/22 04:40:22;;;;;;;1.30;1.20;;;2.00;99.90;;;;;;5057514;28;20724;-47
2021/12/22 04:42:49;;;;;;;2.80;1.73;;;2.00;99.90;;;;;;5057308;28;20476;-52
2021/12/22 04:45:16;;;;;;;1.80;1.40;;;2.00;99.90;;;;;;5057661;28;20640;-51
2021/12/22 04:47:44;;;;;;;3.10;1.70;;;2.00;99.90;;;;;;5057040;28;20455;-46
2021/12/22 04:50:15;;;;;;;3.63;2.10;;;1.90;99.90;;;;;;5057364;28;20508;-51
2021/12/22 04:52:52;;;;;;;3.33;2.00;;;1.90;99.90;;;;;;5057544;28;20444;-50
2021/12/22 04:55:19;;;;;;;2.93;2.07;;;2.00;99.90;;;;;;5057041;28;20408;-53
2021/12/22 04:57:49;;;;;;;2.87;2.40;;;2.00;99.90;;;;;;5056681;28;20550;-49
2021/12/22 05:00:21;;;;;;;6.10;2.50;;;2.00;99.90;;;;;;5056848;28;20468;-49
2021/12/22 05:02:48;;;;;;;5.07;2.03;;;2.00;99.90;;;;;;5056550;28;20479;-47
2021/12/22 05:05:14;;;;;;;5.63;3.10;;;2.00;99.90;;;;;;5056816;28;20486;-53
2021/12/22 05:07:44;;;;;;;2.83;2.10;;;2.00;99.90;;;;;;5056562;28;20532;-49
2021/12/22 05:10:11;;;;;;;10.23;2.60;;;2.00;99.90;;;;;;5057046;28;20459;-50
2021/12/22 05:12:38;;;;;;;3.13;2.13;;;2.00;99.90;;;;;;5056522;28;20452;-55
2021/12/22 05:15:05;;;;;;;2.77;2.27;;;1.90;99.90;;;;;;5056620;28;20528;-48
2021/12/22 05:18:00;;;;;;;3.37;1.80;;;1.80;99.90;;;;;;5056984;28;20443;-54
2021/12/22 05:20:28;;;;;;;3.90;2.10;;;1.80;99.90;;;;;;5056617;28;20457;-52
2021/12/22 05:22:56;;;;;;;8.00;2.83;;;1.60;99.90;;;;;;5056740;28;20491;-51
2021/12/22 05:25:23;;;;;;;7.90;3.33;;;1.70;99.90;;;;;;5056374;28;20511;-47
2021/12/22 05:27:49;;;;;;;5.23;3.07;;;1.60;99.90;;;;;;5055932;28;20471;-50
2021/12/22 05:30:16;;;;;;;2.93;2.27;;;1.60;99.90;;;;;;5056551;28;20459;-47
2021/12/22 05:32:43;;;;;;;3.00;2.40;;;1.60;99.90;;;;;;5056079;28;20474;-50
2021/12/22 05:35:12;;;;;;;7.53;2.40;;;1.70;99.90;;;;;;5056697;28;20421;-55
2021/12/22 05:37:39;;;;;;;6.70;4.00;;;1.70;99.90;;;;;;5056815;28;20546;-42
2021/12/22 05:40:09;;;;;;;5.80;3.70;;;1.70;99.90;;;;;;5056739;28;20456;-52
2021/12/22 05:42:36;;;;;;;7.60;2.53;;;1.70;99.90;;;;;;5056894;28;20454;-48
2021/12/22 05:45:04;;;;;;;8.23;2.87;;;1.60;99.90;;;;;;5056229;28;20472;-46
2021/12/22 05:47:31;;;;;;;4.90;3.50;;;1.50;99.90;;;;;;5055965;28;20454;-44
2021/12/22 05:49:57;;;;;;;3.03;2.20;;;1.50;99.90;;;;;;5055879;28;20464;-46
2021/12/22 05:52:24;;;;;;;7.17;4.53;;;1.40;99.90;;;;;;5055914;28;20519;-50
2021/12/22 05:54:53;;;;;;;4.93;3.60;;;1.40;99.90;;;;;;5056459;28;20424;-56
2021/12/22 05:57:21;;;;;;;11.80;4.13;;;1.40;99.90;;;;;;5055703;28;20488;-47
2021/12/22 05:59:47;;;;;;;4.53;3.13;;;1.40;99.90;;;;;;5055780;28;20767;-50
2021/12/22 06:02:15;;;;;;;5.67;3.73;;;1.40;99.90;;;;;;5055829;28;20473;-50
2021/12/22 06:04:43;;;;;;;5.63;2.93;;;1.40;99.90;;;;;;5055769;28;20468;-49
2021/12/22 06:07:12;;;;;;;13.23;4.20;;;1.50;99.90;;;;;;5055504;28;20443;-47
2021/12/22 06:09:38;;;;;;;12.93;5.37;;;1.50;99.90;;;;;;5055830;28;20449;-50
2021/12/22 06:12:06;;;;;;;7.80;3.77;;;1.50;99.90;;;;;;5055748;28;20463;-50
2021/12/22 06:14:36;;;;;;;7.00;4.10;;;1.50;99.90;;;;;;5055785;28;20478;-48
2021/12/22 06:17:03;;;;;;;5.93;4.10;;;1.50;99.90;;;;;;5055908;28;20432;-48
2021/12/22 06:19:30;;;;;;;5.10;3.13;;;1.40;99.90;;;;;;5055615;28;20518;-48
2021/12/22 06:21:57;;;;;;;4.50;2.80;;;1.40;99.90;;;;;;5056158;28;20448;-50
2021/12/22 06:24:23;;;;;;;7.23;3.63;;;1.40;99.90;;;;;;5055565;28;20450;-51
2021/12/22 06:26:50;;;;;;;9.33;3.63;;;1.30;99.90;;;;;;5055741;28;20431;-50
2021/12/22 06:29:18;;;;;;;8.13;3.80;;;1.30;99.90;;;;;;5055698;28;20484;-52
2021/12/22 06:31:46;;;;;;;4.70;4.00;;;1.30;99.90;;;;;;5055506;28;20455;-49
2021/12/22 06:34:13;;;;;;;6.93;4.40;;;1.30;99.90;;;;;;5055667;28;20469;-53
2021/12/22 06:36:40;;;;;;;5.87;3.17;;;1.30;99.90;;;;;;5055958;28;20439;-52
2021/12/22 06:39:07;;;;;;;7.13;4.60;;;1.30;99.90;;;;;;5058278;28;20481;-47
2021/12/22 06:41:37;;;;;;;5.80;3.87;;;1.30;99.90;;;;;;5059836;28;20462;-47
2021/12/22 06:44:05;;;;;;;10.73;3.30;;;1.30;99.90;;;;;;5059814;28;20495;-51
2021/12/22 06:46:34;;;;;;;6.83;4.53;;;1.30;99.90;;;;;;5059537;28;20447;-51
2021/12/22 06:49:02;;;;;;;8.97;4.47;;;1.30;99.90;;;;;;5059673;28;20463;-53
2021/12/22 06:51:29;;;;;;;14.90;5.20;;;1.30;99.90;;;;;;5059486;28;20432;-42
2021/12/22 06:53:55;;;;;;;5.70;3.63;;;1.30;99.90;;;;;;5059267;28;20483;-48
2021/12/22 06:56:22;;;;;;;8.70;3.60;;;1.30;99.90;;;;;;5059196;28;20428;-48
2021/12/22 06:58:49;;;;;;;7.77;4.33;;;1.30;99.90;;;;;;5059277;28;20539;-51
2021/12/22 07:01:20;;;;;;;5.17;4.10;;;1.40;99.90;;;;;;5059382;28;20457;-51
2021/12/22 07:03:47;;;;;;;9.80;5.20;;;1.40;99.90;;;;;;5059147;28;20439;-53
2021/12/22 07:06:17;;;;;;;5.77;3.90;;;1.30;99.90;;;;;;5059479;28;20416;-53
2021/12/22 07:08:44;;;;;;;12.77;5.23;;;1.30;99.90;;;;;;5059170;28;20456;-45
2021/12/22 07:11:11;;;;;;;7.60;4.10;;;1.30;99.90;;;;;;5058785;28;20445;-49
2021/12/22 07:13:38;;;;;;;8.83;4.83;;;1.40;99.90;;;;;;5058871;28;20453;-50
2021/12/22 07:16:05;;;;;;;8.37;4.50;;;1.40;99.90;;;;;;5057885;28;20451;-50
2021/12/22 07:18:32;;;;;;;7.77;3.57;;;1.40;99.90;;;;;;5058932;28;20475;-50
2021/12/22 07:20:59;;;;;;;8.03;4.17;;;1.40;99.90;;;;;;5058772;28;20454;-52
2021/12/22 07:23:28;;;;;;;7.20;4.67;;;1.40;99.90;;;;;;5059169;28;20439;-54
2021/12/22 07:25:54;;;;;;;6.53;3.13;;;1.40;99.90;;;;;;5059042;28;20447;-47
2021/12/22 07:28:21;;;;;;;7.67;5.67;;;1.40;99.90;;;;;;5058968;28;20438;-46
2021/12/22 07:30:48;;;;;;;5.03;2.80;;;1.40;99.90;;;;;;5059069;28;20439;-48
2021/12/22 07:33:15;;;;;;;5.33;3.77;;;1.40;99.90;;;;;;5058842;28;20444;-49
2021/12/22 07:35:46;;;;;;;15.87;6.10;;;1.40;99.90;;;;;;5058304;28;20452;-50
2021/12/22 07:38:26;;;;;;;12.43;6.40;;;1.40;99.90;;;;;;5058235;28;20435;-49
2021/12/22 07:40:56;;;;;;;8.67;6.00;;;1.30;99.90;;;;;;5058780;28;20451;-50
2021/12/22 07:43:23;;;;;;;10.17;5.50;;;1.40;99.90;;;;;;5057090;28;20431;-47
2021/12/22 07:45:50;;;;;;;7.40;4.13;;;1.40;99.90;;;;;;5046444;28;20467;-54
2021/12/22 07:48:17;;;;;;;4.70;3.70;;;1.40;99.90;;;;;;5047838;28;20459;-52
2021/12/22 07:50:44;;;;;;;8.97;4.37;;;1.40;99.90;;;;;;5056759;28;20448;-46
2021/12/22 07:53:11;;;;;;;5.47;3.47;;;1.50;99.90;;;;;;5057459;28;20437;-50
2021/12/22 07:55:38;;;;;;;9.07;4.30;;;1.50;99.90;;;;;;5049220;28;20992;-52
2021/12/22 07:58:07;;;;;;;16.40;4.90;;;1.50;99.90;;;;;;5056884;28;20442;-49
2021/12/22 08:00:35;;;;;;;12.63;5.07;;;1.50;99.90;;;;;;5058018;28;20506;-49
2021/12/22 08:03:08;;;;;;;12.10;5.43;;;1.50;99.90;;;;;;5057960;28;20461;-54
2021/12/22 08:05:37;;;;;;;14.33;5.43;;;1.50;99.90;;;;;;5057935;28;20465;-53
2021/12/22 08:08:04;;;;;;;6.87;4.70;;;1.50;99.90;;;;;;5057543;28;20458;-51
2021/12/22 08:10:31;;;;;;;8.33;4.80;;;1.50;99.90;;;;;;5058134;28;20536;-50
2021/12/22 08:12:58;;;;;;;7.23;3.67;;;1.50;99.90;;;;;;5058169;28;20440;-50
2021/12/22 08:15:26;;;;;;;11.17;6.60;;;1.60;99.90;;;;;;5057930;28;20514;-49
2021/12/22 08:17:54;;;;;;;7.03;4.10;;;1.60;99.90;;;;;;5057446;28;20469;-51
2021/12/22 08:20:21;;;;;;;9.83;6.30;;;1.60;99.90;;;;;;5058062;28;20521;-53
2021/12/22 08:22:48;;;;;;;9.97;4.77;;;1.60;99.90;;;;;;5058285;28;20450;-49
2021/12/22 08:25:15;;;;;;;7.30;4.90;;;1.60;99.90;;;;;;5057917;28;21010;-51
2021/12/22 08:27:42;;;;;;;14.90;6.50;;;1.60;99.90;;;;;;5057981;28;20452;-45
2021/12/22 08:30:10;;;;;;;14.77;6.13;;;1.60;99.90;;;;;;5057492;28;20974;-46
2021/12/22 08:32:38;;;;;;;8.43;4.83;;;1.60;99.90;;;;;;5057516;28;20440;-48
2021/12/22 08:35:08;;;;;;;16.17;4.27;;;1.70;99.90;;;;;;5057443;28;20494;-51
2021/12/22 08:40:35;;;;;;;11.10;5.10;;;1.80;99.90;;;;;;4977791;29;20539;-51
2021/12/22 08:43:04;;;;;;;9.20;4.83;;;1.90;99.90;;;;;;4977387;28;20445;-52
2021/12/22 08:45:31;;;;;;;11.83;3.80;;;1.90;99.90;;;;;;5013814;28;20444;-48
2021/12/22 08:47:59;;;;;;;15.97;4.03;;;2.00;99.90;;;;;;5057284;28;20424;-51
2021/12/22 08:50:27;;;;;;;7.07;4.67;;;2.00;99.90;;;;;;5057466;28;20461;-50
2021/12/22 08:52:55;;;;;;;8.73;4.20;;;2.00;99.90;;;;;;5057898;28;20441;-52
2021/12/22 08:55:22;;;;;;;11.83;5.10;;;2.10;99.90;;;;;;5057346;28;20499;-48
2021/12/22 08:57:49;;;;;;;7.93;4.60;;;2.10;99.90;;;;;;5057529;28;20467;-51
2021/12/22 09:00:18;;;;;;;7.80;4.80;;;2.20;99.90;;;;;;5057109;28;20488;-51
2021/12/22 09:02:45;;;;;;;9.13;3.37;;;2.30;99.90;;;;;;5056861;28;20452;-51
2021/12/22 09:05:14;;;;;;;9.13;5.00;;;2.30;99.90;;;;;;5056810;28;20462;-46
2021/12/22 09:07:41;;;;;;;7.50;3.30;;;2.30;99.90;;;;;;5056468;28;20476;-50
2021/12/22 09:10:08;;;;;;;6.03;4.40;;;2.40;99.90;;;;;;5056884;28;20505;-49
2021/12/22 09:12:35;;;;;;;6.80;4.80;;;2.50;99.90;;;;;;5057018;28;20421;-50
2021/12/22 09:15:03;;;;;;;10.00;4.63;;;2.50;99.90;;;;;;5056642;28;20511;-50
2021/12/22 09:17:30;;;;;;;13.97;5.17;;;2.60;99.90;;;;;;5056850;28;20438;-52
2021/12/22 09:19:57;;;;;;;7.47;4.10;;;2.60;99.90;;;;;;5057334;28;20480;-47
2021/12/22 09:22:26;;;;;;;11.67;4.63;;;2.60;99.90;;;;;;5056794;28;20444;-51
2021/12/22 09:24:53;;;;;;;33.93;5.23;;;2.70;99.90;;;;;;5056915;28;20424;-53
2021/12/22 09:27:20;;;;;;;5.87;4.37;;;2.70;99.90;;;;;;5056477;28;20446;-55
2021/12/22 09:29:46;;;;;;;13.80;4.90;;;2.80;99.90;;;;;;5056636;28;20449;-52
2021/12/22 09:32:16;;;;;;;11.57;4.00;;;2.80;99.90;;;;;;5056192;28;20445;-51
2021/12/22 09:34:44;;;;;;;16.50;6.80;;;2.80;99.90;;;;;;5056801;28;20524;-48
2021/12/22 09:37:10;;;;;;;10.70;5.70;;;2.80;99.90;;;;;;5056606;28;20456;-46
2021/12/22 09:39:39;;;;;;;12.37;7.70;;;2.80;99.90;;;;;;5056699;28;20479;-48
2021/12/22 09:42:07;;;;;;;8.50;4.50;;;2.90;99.90;;;;;;5057084;28;20421;-55
2021/12/22 09:44:38;;;;;;;14.60;6.20;;;2.90;99.90;;;;;;5056623;28;20431;-52
2021/12/22 09:47:06;;;;;;;16.20;5.53;;;2.90;99.90;;;;;;5056722;28;20499;-51
2021/12/22 09:49:47;;;;;;;15.77;6.57;;;2.90;99.90;;;;;;5056287;28;20420;-56
2021/12/22 09:52:19;;;;;;;10.93;6.77;;;2.90;99.90;;;;;;5056135;28;20476;-50
2021/12/22 09:54:48;;;;;;;8.47;5.67;;;3.00;99.90;;;;;;5056620;28;20434;-52
2021/12/22 09:57:17;;;;;;;12.17;6.53;;;3.10;99.90;;;;;;5056071;28;20464;-47
2021/12/22 09:59:45;;;;;;;10.17;5.80;;;3.10;99.90;;;;;;5056019;28;20473;-51
2021/12/22 10:02:12;;;;;;;11.90;5.23;;;3.10;99.90;;;;;;5056590;28;20444;-49
2021/12/22 10:04:39;;;;;;;19.03;7.37;;;3.20;99.90;;;;;;5056247;28;20451;-49
2021/12/22 10:07:07;;;;;;;14.70;7.53;;;3.20;99.90;;;;;;5056636;28;20519;-47
2021/12/22 10:09:43;;;;;;;23.27;8.90;;;3.30;99.90;;;;;;5056616;28;20421;-44
2021/12/22 10:12:17;;;;;;;13.27;6.60;;;3.30;99.90;;;;;;5056277;28;20453;-49
2021/12/22 10:14:52;;;;;;;12.53;6.53;;;3.60;99.90;;;;;;5056253;28;20425;-48
2021/12/22 10:17:31;;;;;;;14.43;6.67;;;4.00;99.90;;;;;;5056264;28;20428;-53
2021/12/22 10:20:00;;;;;;;13.60;6.33;;;4.30;99.90;;;;;;5055384;28;20543;-51
2021/12/22 10:22:31;;;;;;;13.27;6.60;;;4.50;99.90;;;;;;5054605;28;20469;-45
2021/12/22 10:25:10;;;;;;;7.53;6.70;;;4.60;99.90;;;;;;5056664;28;20428;-50
2021/12/22 10:27:40;;;;;;;10.40;6.50;;;4.50;99.90;;;;;;5056804;28;20522;-51
2021/12/22 10:30:30;;;;;;;12.67;6.90;;;4.30;99.90;;;;;;5056677;28;20460;-48
2021/12/22 10:33:09;;;;;;;12.47;6.77;;;4.10;99.90;;;;;;5056206;28;20417;-48
2021/12/22 10:35:37;;;;;;;19.77;9.00;;;3.90;99.90;;;;;;5056585;28;20452;-50
2021/12/22 10:38:05;;;;;;;17.40;7.80;;;3.70;99.90;;;;;;5056380;28;20800;-54
2021/12/22 10:40:33;;;;;;;12.20;8.13;;;3.50;99.90;;;;;;5056262;28;20476;-51
2021/12/22 10:43:03;;;;;;;12.50;6.20;;;3.40;99.90;;;;;;5055957;28;20471;-50
2021/12/22 10:45:32;;;;;;;9.07;5.00;;;3.30;99.90;;;;;;5055767;28;20455;-47
2021/12/22 10:50:47;;;;;;;12.70;7.10;;;3.20;99.90;;;;;;5055790;28;20429;-50
2021/12/22 10:53:15;;;;;;;11.43;6.90;;;3.20;99.90;;;;;;5055933;28;20844;-51
2021/12/22 10:55:43;;;;;;;9.27;5.90;;;3.10;99.90;;;;;;5055850;28;20444;-55
2021/12/22 10:58:33;;;;;;;15.00;7.90;;;3.20;99.90;;;;;;5056207;28;20499;-54
2021/12/22 11:01:07;;;;;;;14.87;8.73;;;3.20;99.90;;;;;;5056128;28;20477;-51
2021/12/22 11:03:39;;;;;;;11.57;6.20;;;3.30;99.90;;;;;;5055717;28;20482;-55
2021/12/22 11:06:14;;;;;;;17.80;7.47;;;3.30;99.90;;;;;;5055656;28;20432;-51
2021/12/22 11:08:40;;;;;;;17.20;7.10;;;3.20;99.90;;;;;;5055437;28;20936;-54
2021/12/22 11:11:14;;;;;;;13.80;7.90;;;3.30;99.90;;;;;;5055667;28;20445;-48
2021/12/22 11:13:42;;;;;;;19.37;7.27;;;3.30;99.90;;;;;;5055659;28;20494;-48
2021/12/22 11:16:15;;;;;;;9.00;7.13;;;3.30;99.90;;;;;;5055175;28;20421;-50
2021/12/22 11:18:46;;;;;;;14.67;5.10;;;3.30;99.90;;;;;;5055554;28;20448;-54
2021/12/22 11:21:16;;;;;;;13.33;7.43;;;3.30;99.90;;;;;;5055111;28;20468;-48
2021/12/22 11:23:44;;;;;;;10.10;6.00;;;3.30;99.90;;;;;;5054932;28;20472;-54
2021/12/22 11:26:12;;;;;;;10.37;5.90;;;3.40;99.90;;;;;;5058912;28;20442;-49
2021/12/22 11:28:40;;;;;;;13.70;6.53;;;3.40;99.90;;;;;;5058977;28;20444;-51
2021/12/22 11:31:10;;;;;;;17.30;6.60;;;3.40;99.90;;;;;;5059359;28;20479;-49
2021/12/22 11:33:39;;;;;;;12.70;7.20;;;3.40;99.90;;;;;;5058527;28;20460;-54
2021/12/22 11:36:10;;;;;;;8.97;5.33;;;3.30;99.90;;;;;;5058563;28;20436;-50
2021/12/22 11:38:41;;;;;;;12.80;7.63;;;3.40;99.90;;;;;;5058351;28;20559;-46
2021/12/22 11:41:13;;;;;;;13.50;7.10;;;3.40;99.90;;;;;;5057699;28;20476;-55
2021/12/22 11:43:42;;;;;;;14.90;6.23;;;3.60;99.90;;;;;;5059254;28;20479;-48
2021/12/22 11:46:11;;;;;;;12.90;5.83;;;3.60;99.90;;;;;;5058567;28;20437;-44
2021/12/22 11:48:42;;;;;;;12.60;5.17;;;3.70;99.90;;;;;;5053334;28;20452;-54
2021/12/22 11:51:23;;;;;;;16.17;5.43;;;3.60;99.90;;;;;;5058119;28;20452;-52
2021/12/22 11:53:51;;;;;;;10.43;7.07;;;3.60;99.90;;;;;;5058508;28;20460;-54
2021/12/22 11:56:39;;;;;;;14.07;8.20;;;3.50;99.90;;;;;;5050008;28;20484;-64
2021/12/22 11:59:07;;;;;;;14.30;6.97;;;3.50;99.90;;;;;;5058487;28;20465;-52
2021/12/22 12:01:35;;;;;;;12.60;6.87;;;3.60;99.90;;;;;;5058520;28;20480;-51
2021/12/22 12:04:12;;;;;;;22.20;7.17;;;3.70;99.90;;;;;;5057781;28;20465;-51
2021/12/22 12:06:49;;;;;;;10.73;6.90;;;3.70;99.90;;;;;;5057536;28;20475;-49
2021/12/22 12:09:18;;;;;;;17.10;7.70;;;3.70;99.90;;;;;;5049619;28;20503;-47
2021/12/22 12:11:50;;;;;;;12.83;6.83;;;3.70;99.90;;;;;;5049806;28;20448;-49
2021/12/22 12:14:43;;;;;;;16.77;8.67;;;3.70;99.90;;;;;;5049934;28;20480;-47
2021/12/22 12:23:23;;;;;;;14.93;5.90;;;3.80;99.90;;;;;;5056994;28;20857;-53
2021/12/22 12:25:50;;;;;;;16.27;7.47;;;3.90;99.90;;;;;;5048270;28;20455;-47
2021/12/22 12:28:19;;;;;;;12.27;6.50;;;3.90;99.90;;;;;;5056294;28;20468;-50
2021/12/22 12:30:48;;;;;;;14.50;9.03;;;3.80;99.90;;;;;;5055342;28;20465;-48
2021/12/22 12:33:24;;;;;;;15.17;6.30;;;3.70;99.90;;;;;;5055882;28;20449;-49
2021/12/22 12:36:00;;;;;;;11.47;7.13;;;3.70;99.90;;;;;;5054803;28;20474;-49
2021/12/22 12:38:30;;;;;;;14.40;7.70;;;3.60;99.90;;;;;;5058130;28;20436;-47
2021/12/22 12:41:20;;;;;;;19.37;7.00;;;3.50;99.90;;;;;;5057418;28;20535;-48
2021/12/22 12:44:15;;;;;;;16.93;7.73;;;3.50;99.90;;;;;;5057953;28;20431;-49
2021/12/22 12:46:52;;;;;;;13.40;6.90;;;3.50;99.90;;;;;;5053138;28;20599;-59
2021/12/22 12:49:42;;;;;;;13.73;6.80;;;3.50;99.90;;;;;;5058191;28;20412;-45
2021/12/22 12:52:20;;;;;;;21.30;7.20;;;3.40;99.90;;;;;;5057277;28;20436;-58
2021/12/22 12:54:49;;;;;;;17.70;8.43;;;3.40;99.90;;;;;;5057767;28;20429;-51
2021/12/22 12:57:30;;;;;;;18.10;6.87;;;3.30;99.90;;;;;;5057479;28;20477;-48
2021/12/22 13:00:06;;;;;;;12.10;6.30;;;3.40;99.90;;;;;;5057441;28;20483;-56
2021/12/22 13:02:35;;;;;;;10.23;5.00;;;3.50;99.90;;;;;;5057833;28;20412;-48
2021/12/22 13:05:11;;;;;;;13.80;5.97;;;3.60;99.90;;;;;;5056800;28;20509;-51
2021/12/22 13:07:40;;;;;;;14.80;4.80;;;3.60;99.90;;;;;;5055473;28;20520;-53
2021/12/22 13:10:13;;;;;;;12.90;5.33;;;3.60;99.90;;;;;;5055752;28;20428;-49
2021/12/22 13:15:49;;;;;;;12.87;6.87;;;3.60;99.90;;;;;;5056108;28;20440;-51
2021/12/22 13:18:20;;;;;;;9.17;6.20;;;3.50;99.90;;;;;;5056038;28;20456;-47
2021/12/22 13:20:49;;;;;;;12.63;7.80;;;3.50;99.90;;;;;;5056187;28;20487;-50
2021/12/22 13:23:18;;;;;;;13.10;6.20;;;3.40;99.90;;;;;;5056233;28;20492;-51